Time;durP1;ratioP1;P1;durP2;ratioP2;P2;SDS_P1;SDS_P2;PMS_P1;PMS_P2;Temp;Humidity;BMP_temperature;BMP_pressure;BME280_temperature;BME280_humidity;BME280_pressure;Samples;Min_cycle;Max_cycle;Signal;HPM_P1;HPM_P2
2022/06/02 00:00:05;;;;;;;;;;;10.90;99.90;;;;;;5091475;28;19993;-66
2022/06/02 00:02:32;;;;;;;;;;;10.80;99.90;;;;;;5091563;28;19924;-66
2022/06/02 00:05:06;;;;;;;;;;;10.80;99.90;;;;;;5091887;28;20291;-66
2022/06/02 00:07:57;;;;;;;;;;;10.70;99.90;;;;;;5091935;28;19919;-66
2022/06/02 00:10:30;;;;;;;;;;;10.80;99.90;;;;;;5091487;28;19967;-66
2022/06/02 00:13:13;;;;;;;;;;;10.70;99.90;;;;;;5091562;28;19924;-66
2022/06/02 00:15:41;;;;;;;;;;;10.70;99.90;;;;;;5091794;28;19961;-66
2022/06/02 00:18:16;;;;;;;;;;;10.60;99.90;;;;;;5091650;28;19916;-66
2022/06/02 00:21:01;;;;;;;;;;;10.60;99.90;;;;;;5091285;28;19939;-66
2022/06/02 00:23:47;;;;;;;;;;;10.50;99.90;;;;;;5091412;28;19920;-66
2022/06/02 00:26:15;;;;;;;;;;;10.50;99.90;;;;;;5091760;28;20347;-66
2022/06/02 00:28:42;;;;;;;;;;;10.40;99.90;;;;;;5091261;28;19920;-66
2022/06/02 00:31:29;;;;;;;;;;;10.40;99.90;;;;;;5091387;28;19920;-66
2022/06/02 00:34:11;;;;;;;;;;;10.40;99.90;;;;;;5091405;28;19999;-66
2022/06/02 00:36:42;;;;;;;;;;;10.30;99.90;;;;;;5091533;28;20014;-66
2022/06/02 00:39:08;;;;;;;;;;;10.30;99.90;;;;;;5091144;28;19920;-66
2022/06/02 00:41:40;;;;;;;;;;;10.40;99.90;;;;;;5091200;28;19973;-66
2022/06/02 00:44:18;;;;;;;;;;;10.40;99.90;;;;;;5091269;28;20470;-66
2022/06/02 00:46:43;;;;;;;;;;;10.30;99.90;;;;;;5091444;28;19919;-66
2022/06/02 00:49:30;;;;;;;;;;;10.40;99.90;;;;;;5091098;28;19969;-66
2022/06/02 00:52:01;;;;;;;;;;;10.30;99.90;;;;;;5091208;28;19920;-66
2022/06/02 00:57:31;;;;;;;;;;;10.30;99.90;;;;;;5091350;28;19920;-66
2022/06/02 01:00:05;;;;;;;;;;;10.30;99.90;;;;;;5090767;28;20006;-66
2022/06/02 01:02:39;;;;;;;;;;;10.30;99.90;;;;;;5091064;28;19920;-66
2022/06/02 01:05:05;;;;;;;;;;;10.20;99.90;;;;;;5091083;28;20379;-66
2022/06/02 01:07:39;;;;;;;;;;;10.20;99.90;;;;;;5091397;28;20005;-66
2022/06/02 01:10:24;;;;;;;;;;;10.20;99.90;;;;;;5090974;28;20015;-66
2022/06/02 01:13:08;;;;;;;;;;;10.10;99.90;;;;;;5092715;28;19915;-66
2022/06/02 01:15:34;;;;;;;;;;;10.10;99.90;;;;;;5094849;28;19943;-66
2022/06/02 01:18:09;;;;;;;;;;;10.00;99.90;;;;;;5095040;28;19916;-66
2022/06/02 01:20:53;;;;;;;;;;;10.10;99.90;;;;;;5094667;28;19916;-66
2022/06/02 01:23:37;;;;;;;;;;;10.10;99.90;;;;;;5094757;28;19927;-66
2022/06/02 01:26:21;;;;;;;;;;;10.00;99.90;;;;;;5094667;28;19927;-66
2022/06/02 01:28:49;;;;;;;;;;;9.90;99.90;;;;;;5094564;28;19922;-66
2022/06/02 01:31:38;;;;;;;;;;;9.80;99.90;;;;;;5094681;28;20155;-66
2022/06/02 01:34:09;;;;;;;;;;;9.80;99.90;;;;;;5056449;28;19923;-66
2022/06/02 01:36:39;;;;;;;;;;;9.70;99.90;;;;;;5094735;28;19916;-66
2022/06/02 01:39:28;;;;;;;;;;;9.70;99.90;;;;;;5094365;28;19916;-66
2022/06/02 01:41:58;;;;;;;;;;;9.70;99.90;;;;;;5094504;28;19919;-66
2022/06/02 01:44:30;;;;;;;;;;;9.70;99.90;;;;;;5094359;28;19942;-66
2022/06/02 01:46:55;;;;;;;;;;;9.80;99.90;;;;;;5094591;28;19920;-66
2022/06/02 01:49:28;;;;;;;;;;;9.70;99.90;;;;;;5094259;28;20323;-66
2022/06/02 01:52:03;;;;;;;;;;;9.70;99.90;;;;;;5094343;28;19961;-66
2022/06/02 01:54:39;;;;;;;;;;;9.70;99.90;;;;;;5094205;28;20383;-66
2022/06/02 01:57:05;;;;;;;;;;;9.70;99.90;;;;;;5094126;28;20304;-66
2022/06/02 01:59:33;;;;;;;;;;;9.60;99.90;;;;;;5093684;28;19927;-66
2022/06/02 02:02:11;;;;;;;;;;;9.70;99.90;;;;;;5094120;28;20299;-66
2022/06/02 02:05:02;;;;;;;;;;;9.60;99.90;;;;;;5093940;28;19980;-66
2022/06/02 02:07:46;;;;;;;;;;;9.40;99.90;;;;;;5062553;28;19962;-66
2022/06/02 02:10:18;;;;;;;;;;;9.40;99.90;;;;;;5093779;28;20003;-66
2022/06/02 02:12:54;;;;;;;;;;;9.40;99.90;;;;;;5093878;28;19920;-66
2022/06/02 02:15:26;;;;;;;;;;;9.30;99.90;;;;;;5094030;28;19916;-66
2022/06/02 02:18:14;;;;;;;;;;;9.30;99.90;;;;;;5093833;28;19922;-66
2022/06/02 02:20:58;;;;;;;;;;;9.30;99.90;;;;;;5093718;28;20324;-66
2022/06/02 02:23:42;;;;;;;;;;;9.20;99.90;;;;;;5093069;28;19928;-65
2022/06/02 02:26:12;;;;;;;;;;;9.30;99.90;;;;;;5093429;28;19927;-66
2022/06/02 02:28:52;;;;;;;;;;;9.30;99.90;;;;;;5093542;28;19923;-66
2022/06/02 02:31:25;;;;;;;;;;;9.30;99.90;;;;;;5092421;28;19963;-66
2022/06/02 02:34:09;;;;;;;;;;;9.30;99.90;;;;;;5093543;28;19919;-65
2022/06/02 02:36:53;;;;;;;;;;;9.20;99.90;;;;;;5093331;28;19916;-66
2022/06/02 02:39:18;;;;;;;;;;;9.20;99.90;;;;;;5093020;28;20502;-66
2022/06/02 02:41:54;;;;;;;;;;;9.10;99.90;;;;;;5093234;28;20046;-66
2022/06/02 02:44:26;;;;;;;;;;;9.10;99.90;;;;;;5093205;28;19920;-66
2022/06/02 02:46:51;;;;;;;;;;;9.10;99.90;;;;;;5093272;28;19963;-66
2022/06/02 02:49:21;;;;;;;;;;;9.30;99.90;;;;;;5092842;28;19955;-66
2022/06/02 02:51:53;;;;;;;;;;;9.20;99.90;;;;;;5093193;28;19916;-66
2022/06/02 02:54:34;;;;;;;;;;;9.30;99.90;;;;;;5093199;28;19916;-66
2022/06/02 02:57:06;;;;;;;;;;;9.30;99.90;;;;;;5092965;28;20364;-66
2022/06/02 02:59:38;;;;;;;;;;;9.30;99.90;;;;;;5092483;28;19965;-65
2022/06/02 03:02:21;;;;;;;;;;;9.30;99.90;;;;;;5093116;28;19916;-66
2022/06/02 03:04:50;;;;;;;;;;;9.30;99.90;;;;;;5093037;28;19927;-66
2022/06/02 03:07:16;;;;;;;;;;;9.20;99.90;;;;;;5092924;28;20104;-66
2022/06/02 03:09:44;;;;;;;;;;;9.20;99.90;;;;;;5092580;28;20490;-66
2022/06/02 03:12:29;;;;;;;;;;;9.20;99.90;;;;;;5090667;28;19923;-66
2022/06/02 03:15:10;;;;;;;;;;;9.10;99.90;;;;;;5089659;28;19938;-66
2022/06/02 03:17:36;;;;;;;;;;;9.20;99.90;;;;;;5089845;28;20439;-66
2022/06/02 03:20:08;;;;;;;;;;;9.10;99.90;;;;;;5091206;28;19916;-66
2022/06/02 03:22:33;;;;;;;;;;;9.10;99.90;;;;;;5092388;28;19917;-66
2022/06/02 03:24:59;;;;;;;;;;;9.10;99.90;;;;;;5092092;28;19923;-66
2022/06/02 03:27:35;;;;;;;;;;;9.10;99.90;;;;;;5091435;28;20281;-66
2022/06/02 03:30:00;;;;;;;;;;;9.10;99.90;;;;;;5091895;28;20283;-66
2022/06/02 03:32:36;;;;;;;;;;;9.10;99.90;;;;;;5092414;28;19916;-66
2022/06/02 03:35:10;;;;;;;;;;;9.00;99.90;;;;;;5091993;28;20424;-66
2022/06/02 03:37:36;;;;;;;;;;;9.10;99.90;;;;;;5092513;28;19963;-66
2022/06/02 03:40:01;;;;;;;;;;;9.10;99.90;;;;;;5092106;28;19970;-66
2022/06/02 03:42:29;;;;;;;;;;;9.00;99.90;;;;;;5092168;28;20403;-66
2022/06/02 03:45:11;;;;;;;;;;;9.00;99.90;;;;;;5092241;28;19920;-66
2022/06/02 03:47:36;;;;;;;;;;;9.00;99.90;;;;;;5092125;28;19965;-66
2022/06/02 03:50:28;;;;;;;;;;;9.10;99.90;;;;;;5091984;28;19955;-66
2022/06/02 03:53:03;;;;;;;;;;;9.10;99.90;;;;;;5092095;28;19919;-66
2022/06/02 03:55:34;;;;;;;;;;;9.20;99.90;;;;;;5091999;28;19951;-66
2022/06/02 03:58:00;;;;;;;;;;;9.30;99.90;;;;;;5091832;28;19923;-66
2022/06/02 04:00:28;;;;;;;;;;;9.30;99.90;;;;;;5091572;28;19920;-66
2022/06/02 04:03:00;;;;;;;;;;;9.30;99.90;;;;;;5091876;28;20320;-66
2022/06/02 04:05:29;;;;;;;;;;;9.50;99.90;;;;;;5091710;28;20376;-66
2022/06/02 04:07:54;;;;;;;;;;;9.50;99.90;;;;;;5091817;28;19980;-66
2022/06/02 04:10:23;;;;;;;;;;;9.50;99.90;;;;;;5091384;28;19978;-66
2022/06/02 04:15:42;;;;;;;;;;;9.60;99.90;;;;;;5091817;28;19916;-66
2022/06/02 04:18:27;;;;;;;;;;;9.80;99.90;;;;;;5091633;28;19920;-66
2022/06/02 04:21:05;;;;;;;;;;;9.80;99.90;;;;;;5091561;28;19916;-66
2022/06/02 04:23:41;;;;;;;;;;;9.80;99.90;;;;;;5091501;28;20532;-66
2022/06/02 04:26:25;;;;;;;;;;;9.90;99.90;;;;;;5091589;28;19981;-66
2022/06/02 04:29:09;;;;;;;;;;;9.90;99.90;;;;;;5091222;28;19985;-66
2022/06/02 04:31:57;;;;;;;;;;;10.10;99.90;;;;;;5091584;28;19920;-66
2022/06/02 04:34:49;;;;;;;;;;;10.20;99.90;;;;;;5091558;28;19919;-66
2022/06/02 04:37:31;;;;;;;;;;;10.30;99.90;;;;;;5087349;28;19923;-66
2022/06/02 04:40:12;;;;;;;;;;;10.50;99.90;;;;;;5091279;28;19916;-66
2022/06/02 04:42:56;;;;;;;;;;;10.50;99.90;;;;;;5091297;28;20014;-66
2022/06/02 04:45:32;;;;;;;;;;;10.70;99.90;;;;;;5091369;28;19916;-66
2022/06/02 04:48:07;;;;;;;;;;;10.80;99.90;;;;;;5093267;28;19967;-66
2022/06/02 04:50:37;;;;;;;;;;;10.90;99.90;;;;;;5095372;28;19951;-66
2022/06/02 04:53:08;;;;;;;;;;;11.00;99.90;;;;;;5095603;28;19952;-66
2022/06/02 04:55:49;;;;;;;;;;;11.20;99.90;;;;;;5095504;28;19951;-66
2022/06/02 04:58:18;;;;;;;;;;;11.30;99.90;;;;;;5095320;28;19916;-66
2022/06/02 05:00:48;;;;;;;;;;;11.50;99.90;;;;;;5095013;28;19966;-66
2022/06/02 05:03:17;;;;;;;;;;;11.50;99.90;;;;;;5095338;28;19919;-66
2022/06/02 05:05:53;;;;;;;;;;;11.60;99.90;;;;;;5095269;28;19915;-66
2022/06/02 05:08:40;;;;;;;;;;;11.70;99.90;;;;;;5095116;28;19938;-66
2022/06/02 05:11:10;;;;;;;;;;;11.80;99.90;;;;;;5095210;28;19924;-66
2022/06/02 05:13:47;;;;;;;;;;;12.00;99.90;;;;;;5095290;28;20299;-66
2022/06/02 05:16:31;;;;;;;;;;;12.30;99.90;;;;;;5094958;28;20407;-66
2022/06/02 05:18:59;;;;;;;;;;;12.30;99.90;;;;;;5094700;28;20341;-66
2022/06/02 05:21:25;;;;;;;;;;;12.50;99.90;;;;;;5094734;28;19920;-66
2022/06/02 05:24:06;;;;;;;;;;;12.60;99.90;;;;;;5094984;28;19931;-66
2022/06/02 05:26:44;;;;;;;;;;;12.80;99.90;;;;;;5094823;28;19965;-66
2022/06/02 05:29:18;;;;;;;;;;;12.90;99.90;;;;;;5094628;28;19923;-66
2022/06/02 05:32:02;;;;;;;;;;;12.90;99.90;;;;;;5094752;28;19947;-66
2022/06/02 05:34:43;;;;;;;;;;;13.10;99.90;;;;;;5094828;28;20007;-66
2022/06/02 05:37:17;;;;;;;;;;;13.20;99.90;;;;;;5094713;28;20283;-66
2022/06/02 05:39:52;;;;;;;;;;;13.20;99.90;;;;;;5094322;28;19920;-66
2022/06/02 05:42:22;;;;;;;;;;;13.30;99.90;;;;;;5094407;28;19970;-66
2022/06/02 05:45:09;;;;;;;;;;;13.20;99.90;;;;;;5094629;28;20334;-66
2022/06/02 05:47:54;;;;;;;;;;;13.40;99.90;;;;;;5094563;28;19962;-66
2022/06/02 05:50:25;;;;;;;;;;;13.50;99.90;;;;;;5094058;28;20371;-66
2022/06/02 05:53:04;;;;;;;;;;;13.50;99.90;;;;;;5094389;28;19926;-66
2022/06/02 05:55:33;;;;;;;;;;;13.50;99.90;;;;;;5094417;28;19922;-66
2022/06/02 05:58:01;;;;;;;;;;;13.60;99.90;;;;;;5094095;28;20386;-66
2022/06/02 06:00:39;;;;;;;;;;;13.90;99.90;;;;;;5093777;28;20386;-66
2022/06/02 06:03:13;;;;;;;;;;;13.90;99.90;;;;;;5093951;28;19928;-66
2022/06/02 06:05:43;;;;;;;;;;;14.00;99.90;;;;;;5094179;28;19920;-66
2022/06/02 06:08:23;;;;;;;;;;;14.00;99.90;;;;;;5094122;28;19916;-66
2022/06/02 06:11:07;;;;;;;;;;;14.10;99.90;;;;;;5093734;28;19916;-66
2022/06/02 06:13:58;;;;;;;;;;;14.10;99.90;;;;;;5093874;28;19926;-66
2022/06/02 06:16:43;;;;;;;;;;;14.40;99.90;;;;;;5094108;28;19923;-66
2022/06/02 06:19:24;;;;;;;;;;;14.40;99.90;;;;;;5093650;28;20003;-66
2022/06/02 06:21:58;;;;;;;;;;;14.30;99.90;;;;;;5093643;28;20015;-66
2022/06/02 06:24:30;;;;;;;;;;;14.60;99.90;;;;;;5093831;28;19920;-66
2022/06/02 06:27:11;;;;;;;;;;;14.50;99.90;;;;;;5093759;28;19959;-66
2022/06/02 06:29:55;;;;;;;;;;;14.50;99.90;;;;;;5093342;28;19920;-66
2022/06/02 06:32:35;;;;;;;;;;;14.70;99.90;;;;;;5093445;28;19927;-66
2022/06/02 06:35:07;;;;;;;;;;;14.60;99.90;;;;;;5093621;28;19921;-66
2022/06/02 06:37:44;;;;;;;;;;;14.80;99.90;;;;;;5093628;28;20329;-66
2022/06/02 06:40:22;;;;;;;;;;;14.80;99.90;;;;;;5093162;28;20011;-66
2022/06/02 06:43:01;;;;;;;;;;;14.70;99.90;;;;;;5093690;28;20334;-67
2022/06/02 06:45:30;;;;;;;;;;;14.90;99.90;;;;;;5093516;28;19962;-66
2022/06/02 06:48:09;;;;;;;;;;;15.00;99.90;;;;;;5093428;28;19916;-66
2022/06/02 06:50:43;;;;;;;;;;;15.00;99.90;;;;;;5092998;28;19916;-66
2022/06/02 06:53:09;;;;;;;;;;;14.90;99.90;;;;;;5093432;28;20437;-66
2022/06/02 06:55:53;;;;;;;;;;;15.00;99.90;;;;;;5093357;28;19916;-66
2022/06/02 06:58:27;;;;;;;;;;;15.20;99.90;;;;;;5093187;28;19962;-66
2022/06/02 07:01:15;;;;;;;;;;;15.10;99.90;;;;;;5092904;28;19920;-66
2022/06/02 07:03:47;;;;;;;;;;;15.30;99.90;;;;;;5093139;28;19936;-66
2022/06/02 07:06:29;;;;;;;;;;;15.50;99.90;;;;;;5092958;28;20350;-66
2022/06/02 07:09:01;;;;;;;;;;;15.50;99.90;;;;;;5092717;28;19955;-66
2022/06/02 07:14:27;;;;;;;;;;;15.30;99.90;;;;;;5092969;28;19920;-66
2022/06/02 07:16:55;;;;;;;;;;;15.40;99.90;;;;;;5092904;28;19920;-66
2022/06/02 07:19:39;;;;;;;;;;;15.40;99.90;;;;;;5092476;28;19920;-66
2022/06/02 07:22:16;;;;;;;;;;;15.30;99.90;;;;;;5092454;28;19916;-66
2022/06/02 07:24:41;;;;;;;;;;;15.30;99.90;;;;;;5092775;28;19920;-66
2022/06/02 07:27:15;;;;;;;;;;;15.50;99.90;;;;;;5092714;28;20383;-66
2022/06/02 07:29:44;;;;;;;;;;;15.40;99.90;;;;;;5092358;28;19920;-66
2022/06/02 07:32:21;;;;;;;;;;;15.50;99.90;;;;;;5092517;28;20007;-66
2022/06/02 07:34:56;;;;;;;;;;;15.60;99.90;;;;;;5092390;28;19967;-66
2022/06/02 07:37:29;;;;;;;;;;;15.30;99.90;;;;;;5092742;28;19943;-66
2022/06/02 07:40:12;;;;;;;;;;;15.50;99.90;;;;;;5092226;28;20293;-66
2022/06/02 07:42:47;;;;;;;;;;;15.50;99.90;;;;;;5092245;28;19920;-66
2022/06/02 07:45:22;;;;;;;;;;;15.60;99.90;;;;;;5092107;28;20380;-66
2022/06/02 07:48:06;;;;;;;;;;;15.60;99.90;;;;;;5091959;28;20394;-66
2022/06/02 07:50:34;;;;;;;;;;;15.80;99.90;;;;;;5091878;28;19968;-66
2022/06/02 07:53:10;;;;;;;;;;;15.70;99.90;;;;;;5092044;28;19916;-66
2022/06/02 07:55:49;;;;;;;;;;;15.90;99.90;;;;;;5091976;28;19927;-66
2022/06/02 07:58:21;;;;;;;;;;;16.10;99.90;;;;;;5092198;28;20264;-66
2022/06/02 08:01:03;;;;;;;;;;;16.00;99.90;;;;;;5091601;28;20020;-66
2022/06/02 08:03:28;;;;;;;;;;;16.10;99.90;;;;;;5091913;28;19920;-66
2022/06/02 08:06:12;;;;;;;;;;;16.20;99.90;;;;;;5091678;28;19999;-66
2022/06/02 08:09:01;;;;;;;;;;;16.10;99.90;;;;;;5091690;28;19961;-66
2022/06/02 08:11:34;;;;;;;;;;;16.00;99.90;;;;;;5080889;28;20273;-66
2022/06/02 08:14:14;;;;;;;;;;;16.20;99.90;;;;;;5091782;28;19916;-66
2022/06/02 08:16:40;;;;;;;;;;;16.40;99.90;;;;;;5092008;28;20332;-66
2022/06/02 08:19:13;;;;;;;;;;;16.50;99.90;;;;;;5091619;28;20006;-66
2022/06/02 08:21:45;;;;;;;;;;;16.30;99.90;;;;;;5090862;28;19916;-66
2022/06/02 08:24:10;;;;;;;;;;;16.40;99.90;;;;;;5091528;28;19967;-66
2022/06/02 08:26:46;;;;;;;;;;;16.40;99.90;;;;;;5091470;28;20274;-66
2022/06/02 08:29:30;;;;;;;;;;;16.60;99.90;;;;;;5091485;28;20022;-66
2022/06/02 08:32:16;;;;;;;;;;;16.50;99.90;;;;;;5090086;28;19919;-66
2022/06/02 08:34:52;;;;;;;;;;;16.60;99.90;;;;;;5091421;28;20379;-66
2022/06/02 08:37:18;;;;;;;;;;;16.70;99.90;;;;;;5091697;28;20326;-66
2022/06/02 08:39:43;;;;;;;;;;;16.70;99.90;;;;;;5091355;28;19916;-66
2022/06/02 08:42:17;;;;;;;;;;;16.60;99.90;;;;;;5091481;28;19916;-66
2022/06/02 08:45:06;;;;;;;;;;;16.70;99.90;;;;;;5091234;28;19931;-66
2022/06/02 08:47:47;;;;;;;;;;;16.90;99.90;;;;;;5091363;28;20006;-67
2022/06/02 08:50:20;;;;;;;;;;;16.80;99.90;;;;;;5091151;28;20027;-66
2022/06/02 08:53:03;;;;;;;;;;;16.70;99.90;;;;;;5091414;28;19916;-66
2022/06/02 08:55:43;;;;;;;;;;;16.40;99.90;;;;;;5091306;28;19926;-66
2022/06/02 08:58:27;;;;;;;;;;;16.60;99.90;;;;;;5091890;28;19958;-67
2022/06/02 09:01:10;;;;;;;;;;;16.80;99.90;;;;;;5091295;28;19959;-66
2022/06/02 09:03:35;;;;;;;;;;;17.00;99.90;;;;;;5091437;28;19927;-67
2022/06/02 09:06:19;;;;;;;;;;;17.00;99.90;;;;;;5091295;28;20308;-66
2022/06/02 09:09:07;;;;;;;;;;;16.90;99.90;;;;;;5091277;28;19916;-67
2022/06/02 09:11:41;;;;;;;;;;;16.60;99.90;;;;;;5080345;28;19950;-67
2022/06/02 09:14:25;;;;;;;;;;;16.70;99.90;;;;;;5091238;28;19927;-66
2022/06/02 09:16:56;;;;;;;;;;;16.60;99.90;;;;;;5091077;28;20010;-66
2022/06/02 09:19:33;;;;;;;;;;;16.90;99.90;;;;;;5090959;28;19955;-66
2022/06/02 09:22:04;;;;;;;;;;;17.00;99.90;;;;;;5090901;28;19919;-66
2022/06/02 09:24:32;;;;;;;;;;;17.10;99.90;;;;;;5091064;28;19966;-66
2022/06/02 09:27:16;;;;;;;;;;;17.30;99.90;;;;;;5091011;28;19916;-66
2022/06/02 09:29:47;;;;;;;;;;;17.30;99.90;;;;;;5090637;28;20426;-66
2022/06/02 09:32:21;;;;;;;;;;;16.90;99.90;;;;;;5090873;28;20395;-66
2022/06/02 09:34:52;;;;;;;;;;;17.00;99.90;;;;;;5094081;28;19923;-66
2022/06/02 09:37:33;;;;;;;;;;;17.00;99.90;;;;;;5094673;28;19915;-66
2022/06/02 09:40:04;;;;;;;;;;;17.10;99.90;;;;;;5094519;28;19916;-65
2022/06/02 09:42:29;;;;;;;;;;;17.20;99.90;;;;;;5094381;28;20403;-66
2022/06/02 09:45:10;;;;;;;;;;;17.40;99.90;;;;;;5094484;28;19919;-66
2022/06/02 09:47:38;;;;;;;;;;;17.30;99.90;;;;;;5094458;28;19963;-66
2022/06/02 09:50:18;;;;;;;;;;;17.30;99.90;;;;;;5093922;28;20010;-66
2022/06/02 09:52:53;;;;;;;;;;;17.30;99.90;;;;;;5094433;28;19923;-66
2022/06/02 09:55:24;;;;;;;;;;;17.30;99.90;;;;;;5094462;28;19916;-66
2022/06/02 09:57:55;;;;;;;;;;;17.50;99.90;;;;;;5094339;28;19916;-66
2022/06/02 10:00:39;;;;;;;;;;;17.40;99.90;;;;;;5093847;28;19970;-66
2022/06/02 10:03:23;;;;;;;;;;;17.60;99.90;;;;;;5094224;28;19920;-66
2022/06/02 10:06:07;;;;;;;;;;;17.70;99.90;;;;;;5094193;28;19916;-66
2022/06/02 10:08:51;;;;;;;;;;;17.80;99.90;;;;;;5093773;28;19927;-66
2022/06/02 10:11:29;;;;;;;;;;;18.00;99.90;;;;;;5092631;28;19923;-66
2022/06/02 10:14:14;;;;;;;;;;;18.10;99.90;;;;;;5094104;28;19985;-66
2022/06/02 10:16:51;;;;;;;;;;;18.20;99.90;;;;;;5093948;28;20000;-66
2022/06/02 10:19:35;;;;;;;;;;;18.00;99.90;;;;;;5093374;28;20395;-66
2022/06/02 10:22:20;;;;;;;;;;;18.00;99.90;;;;;;5093829;28;20413;-66
2022/06/02 10:25:01;;;;;;;;;;;18.00;99.90;;;;;;5093682;28;19993;-66
2022/06/02 10:27:28;;;;;;;;;;;17.90;99.90;;;;;;5092315;28;19916;-66
2022/06/02 10:29:56;;;;;;;;;;;17.90;99.90;;;;;;5093490;28;19923;-66
2022/06/02 10:32:40;;;;;;;;;;;17.70;99.90;;;;;;5093428;28;20372;-66
2022/06/02 10:35:24;;;;;;;;;;;17.80;99.90;;;;;;5093508;28;19927;-66
2022/06/02 10:38:16;;;;;;;;;;;17.60;99.90;;;;;;5093410;28;19916;-66
2022/06/02 10:40:53;;;;;;;;;;;17.50;99.90;;;;;;5010660;28;19951;-66
2022/06/02 10:43:25;;;;;;;;;;;17.70;99.90;;;;;;5010994;28;20436;-66
2022/06/02 10:46:21;;;;;;;;;;;17.70;99.90;;;;;;5010070;28;20313;-67
2022/06/02 10:48:46;;;;;;;;;;;17.70;99.90;;;;;;5010751;28;19932;-66
2022/06/02 10:51:21;;;;;;;;;;;17.70;99.90;;;;;;5035462;28;19920;-66
2022/06/02 10:53:53;;;;;;;;;;;17.70;99.90;;;;;;5093158;28;20360;-66
2022/06/02 10:56:18;;;;;;;;;;;17.60;99.90;;;;;;5093150;28;19916;-66
2022/06/02 10:58:54;;;;;;;;;;;17.70;99.90;;;;;;5092554;28;19922;-66
2022/06/02 11:01:25;;;;;;;;;;;17.80;99.90;;;;;;5093239;28;19916;-66
2022/06/02 11:04:09;;;;;;;;;;;17.90;99.90;;;;;;5093023;28;19923;-66
2022/06/02 11:06:54;;;;;;;;;;;18.00;99.90;;;;;;5092901;28;20409;-66
2022/06/02 11:09:25;;;;;;;;;;;18.10;99.90;;;;;;5092573;28;20300;-66
2022/06/02 11:12:09;;;;;;;;;;;18.00;99.90;;;;;;5092926;28;19916;-66
2022/06/02 11:14:54;;;;;;;;;;;18.20;99.90;;;;;;5092873;28;19916;-66
2022/06/02 11:17:32;;;;;;;;;;;18.40;99.90;;;;;;5092687;28;19916;-67
2022/06/02 11:20:15;;;;;;;;;;;18.50;99.90;;;;;;5092645;28;19916;-66
2022/06/02 11:23:00;;;;;;;;;;;18.30;99.90;;;;;;5091409;28;19920;-67
2022/06/02 11:25:37;;;;;;;;;;;18.20;99.90;;;;;;5092683;28;19916;-66
2022/06/02 11:28:22;;;;;;;;;;;18.40;99.90;;;;;;5092450;28;20019;-67
2022/06/02 11:30:51;;;;;;;;;;;18.70;99.90;;;;;;5092474;28;20007;-66
2022/06/02 11:33:35;;;;;;;;;;;18.70;99.90;;;;;;5092452;28;19967;-66
2022/06/02 11:36:19;;;;;;;;;;;18.70;99.90;;;;;;5092420;28;20015;-66
2022/06/02 11:39:05;;;;;;;;;;;18.70;99.90;;;;;;5091972;28;20435;-66
2022/06/02 11:41:34;;;;;;;;;;;18.60;99.90;;;;;;5092383;28;19920;-66
2022/06/02 11:44:18;;;;;;;;;;;18.50;99.90;;;;;;5092205;28;19920;-66
2022/06/02 11:46:46;;;;;;;;;;;18.40;99.90;;;;;;5092017;28;19920;-66
2022/06/02 11:49:20;;;;;;;;;;;18.60;99.90;;;;;;5090730;28;20069;-66
2022/06/02 11:51:49;;;;;;;;;;;18.60;99.90;;;;;;5092085;28;19927;-66
2022/06/02 11:54:26;;;;;;;;;;;18.70;99.90;;;;;;5092105;28;19916;-66
2022/06/02 11:57:03;;;;;;;;;;;18.40;99.90;;;;;;5091750;28;19916;-66
2022/06/02 11:59:29;;;;;;;;;;;18.40;99.90;;;;;;5091768;28;19920;-66
2022/06/02 12:01:57;;;;;;;;;;;18.40;99.90;;;;;;5091968;28;19916;-66
2022/06/02 12:04:45;;;;;;;;;;;18.50;99.90;;;;;;5091941;28;20000;-66
2022/06/02 12:07:29;;;;;;;;;;;18.40;99.90;;;;;;5091991;28;19916;-66
2022/06/02 12:09:57;;;;;;;;;;;18.50;99.90;;;;;;5091644;28;19989;-66
2022/06/02 12:12:41;;;;;;;;;;;18.60;99.90;;;;;;5091825;28;19974;-66
2022/06/02 12:15:10;;;;;;;;;;;18.50;99.90;;;;;;5091775;28;19926;-66
2022/06/02 12:17:54;;;;;;;;;;;18.60;99.90;;;;;;5091804;28;20796;-66
2022/06/02 12:20:37;;;;;;;;;;;18.50;99.90;;;;;;5091638;28;19969;-66
2022/06/02 12:23:17;;;;;;;;;;;18.50;99.90;;;;;;5091646;28;20030;-66
2022/06/02 12:25:45;;;;;;;;;;;18.50;99.90;;;;;;5091726;28;20131;-66
2022/06/02 12:28:16;;;;;;;;;;;18.50;99.90;;;;;;5091462;28;19927;-66
2022/06/02 12:31:00;;;;;;;;;;;18.60;99.90;;;;;;5091412;28;19919;-66
2022/06/02 12:33:26;;;;;;;;;;;18.40;99.90;;;;;;5091564;28;19920;-67
2022/06/02 12:36:13;;;;;;;;;;;18.60;99.90;;;;;;5091526;28;19916;-66
2022/06/02 12:38:47;;;;;;;;;;;18.80;99.90;;;;;;5091176;28;19922;-66
2022/06/02 12:41:31;;;;;;;;;;;18.80;99.90;;;;;;5091537;28;19916;-67
2022/06/02 12:43:59;;;;;;;;;;;18.70;99.90;;;;;;5091425;28;19926;-66
2022/06/02 12:46:28;;;;;;;;;;;18.90;99.90;;;;;;5091388;28;19937;-67
2022/06/02 12:49:12;;;;;;;;;;;18.70;99.90;;;;;;5091081;28;19998;-67
2022/06/02 12:51:52;;;;;;;;;;;18.70;99.90;;;;;;5091440;28;19916;-66
2022/06/02 12:54:17;;;;;;;;;;;18.90;99.90;;;;;;5091294;28;19998;-66
2022/06/02 12:56:49;;;;;;;;;;;19.00;99.90;;;;;;5091332;28;20423;-66
2022/06/02 12:59:26;;;;;;;;;;;19.00;99.90;;;;;;5090906;28;20287;-66
2022/06/02 13:02:08;;;;;;;;;;;19.10;99.90;;;;;;5091146;28;19927;-67
2022/06/02 13:04:52;;;;;;;;;;;19.30;99.90;;;;;;5091217;28;19927;-66
2022/06/02 13:07:38;;;;;;;;;;;19.50;99.90;;;;;;5091204;28;19922;-67
2022/06/02 13:10:07;;;;;;;;;;;19.40;99.90;;;;;;5094641;28;19923;-67
2022/06/02 13:12:32;;;;;;;;;;;19.50;99.90;;;;;;5095235;28;19966;-67
2022/06/02 13:15:13;;;;;;;;;;;19.50;99.90;;;;;;5095199;28;19963;-66
2022/06/02 13:17:58;;;;;;;;;;;19.60;99.90;;;;;;5095192;28;19915;-66
2022/06/02 13:20:34;;;;;;;;;;;19.50;99.90;;;;;;5094666;28;19919;-66
2022/06/02 13:23:16;;;;;;;;;;;19.20;99.90;;;;;;5095029;28;19916;-66
2022/06/02 13:25:54;;;;;;;;;;;19.30;99.90;;;;;;5095114;28;19935;-66
2022/06/02 13:28:32;;;;;;;;;;;19.30;99.90;;;;;;5094714;28;19916;-67
2022/06/02 13:31:10;;;;;;;;;;;19.30;99.90;;;;;;5094627;28;19959;-66
2022/06/02 13:33:39;;;;;;;;;;;19.30;99.90;;;;;;5094966;28;19974;-66
2022/06/02 13:36:04;;;;;;;;;;;19.30;99.90;;;;;;5094734;28;20277;-67
2022/06/02 13:38:42;;;;;;;;;;;19.30;99.90;;;;;;5094442;28;19916;-66
2022/06/02 13:41:24;;;;;;;;;;;19.40;99.90;;;;;;5094475;28;20010;-66
2022/06/02 13:44:05;;;;;;;;;;;19.50;99.90;;;;;;5094588;28;19920;-66
2022/06/02 13:46:42;;;;;;;;;;;19.40;99.90;;;;;;5094608;28;19916;-67
2022/06/02 13:49:13;;;;;;;;;;;19.40;99.90;;;;;;5094193;28;19920;-66
2022/06/02 13:51:59;;;;;;;;;;;19.30;99.90;;;;;;5094250;28;20388;-66
2022/06/02 13:57:38;;;;;;;;;;;19.10;99.90;;;;;;5094437;28;19916;-66
2022/06/02 14:00:04;;;;;;;;;;;19.20;99.90;;;;;;5093820;28;19919;-66
2022/06/02 14:02:48;;;;;;;;;;;19.20;99.90;;;;;;5094234;28;19923;-66
2022/06/02 14:05:32;;;;;;;;;;;19.10;99.90;;;;;;5094204;28;19920;-67
2022/06/02 14:08:16;;;;;;;;;;;19.20;99.90;;;;;;5094044;28;19916;-67
2022/06/02 14:10:49;;;;;;;;;;;19.40;99.90;;;;;;5094014;28;19920;-66
2022/06/02 14:13:30;;;;;;;;;;;19.30;99.90;;;;;;5094479;28;20257;-66
2022/06/02 14:16:15;;;;;;;;;;;19.30;99.80;;;;;;5094057;28;20349;-67
2022/06/02 14:18:53;;;;;;;;;;;19.10;99.90;;;;;;5093519;28;20000;-66
2022/06/02 14:21:24;;;;;;;;;;;19.10;99.90;;;;;;5094031;28;19990;-66
2022/06/02 14:23:59;;;;;;;;;;;19.20;99.70;;;;;;5093842;28;19928;-67
2022/06/02 14:26:43;;;;;;;;;;;19.00;99.90;;;;;;5093896;28;19920;-67
2022/06/02 14:29:27;;;;;;;;;;;19.00;99.90;;;;;;5093274;28;20403;-67
2022/06/02 14:32:12;;;;;;;;;;;19.00;99.90;;;;;;5093760;28;19922;-66
2022/06/02 14:34:45;;;;;;;;;;;18.90;99.90;;;;;;5093630;28;19916;-67
2022/06/02 14:37:14;;;;;;;;;;;18.90;99.90;;;;;;5093672;28;20027;-67
2022/06/02 14:39:45;;;;;;;;;;;19.00;99.90;;;;;;5093232;28;20280;-66
2022/06/02 14:42:10;;;;;;;;;;;18.90;99.90;;;;;;5093655;28;20061;-66
2022/06/02 14:44:57;;;;;;;;;;;18.90;99.90;;;;;;5093434;28;20015;-67
2022/06/02 14:47:33;;;;;;;;;;;18.80;99.90;;;;;;5093409;28;19920;-66
2022/06/02 14:50:12;;;;;;;;;;;18.80;99.90;;;;;;5093022;28;20272;-66
2022/06/02 14:52:44;;;;;;;;;;;18.70;99.90;;;;;;5093479;28;19968;-66
2022/06/02 14:55:18;;;;;;;;;;;18.70;99.90;;;;;;5093438;28;19955;-66
2022/06/02 14:57:46;;;;;;;;;;;18.70;99.90;;;;;;5093220;28;19920;-67
2022/06/02 15:00:13;;;;;;;;;;;18.80;99.90;;;;;;5092744;28;20265;-66
2022/06/02 15:02:39;;;;;;;;;;;18.80;99.90;;;;;;5092921;28;19927;-66
2022/06/02 15:05:14;;;;;;;;;;;18.80;99.90;;;;;;5093034;28;19920;-67
2022/06/02 15:07:58;;;;;;;;;;;18.70;99.90;;;;;;5093151;28;20384;-67
2022/06/02 15:10:29;;;;;;;;;;;18.70;99.90;;;;;;5092676;28;19974;-67
2022/06/02 15:12:54;;;;;;;;;;;18.60;99.90;;;;;;5092662;28;20400;-66
2022/06/02 15:15:29;;;;;;;;;;;18.70;99.90;;;;;;5092960;28;19923;-67
2022/06/02 15:17:55;;;;;;;;;;;18.60;99.90;;;;;;5092848;28;19923;-66
2022/06/02 15:20:25;;;;;;;;;;;18.50;99.90;;;;;;5092504;28;20092;-67